Time;durP1;ratioP1;P1;durP2;ratioP2;P2;SDS_P1;SDS_P2;PMS_P1;PMS_P2;Temp;Humidity;BMP_temperature;BMP_pressure;BME280_temperature;BME280_humidity;BME280_pressure;Samples;Min_cycle;Max_cycle;Signal;HPM_P1;HPM_P2
2023/04/26 00:01:22;;;;;;;12.90;11.07;;;;;;;9.75;100.00;99181.13;5024401;28;20540;-73
2023/04/26 00:03:48;;;;;;;12.77;11.45;;;;;;;9.78;100.00;99194.16;5033461;28;20036;-73
2023/04/26 00:06:15;;;;;;;13.23;10.75;;;;;;;9.46;100.00;99137.97;5027305;28;20072;-74
2023/04/26 00:08:41;;;;;;;22.05;11.38;;;;;;;9.13;100.00;99073.03;5037148;28;20045;-74
2023/04/26 00:11:06;;;;;;;15.32;13.45;;;;;;;9.80;100.00;99168.81;5049084;28;20377;-73
2023/04/26 00:13:32;;;;;;;13.25;10.65;;;;;;;9.67;100.00;99141.13;5040268;28;20136;-73
2023/04/26 00:15:57;;;;;;;13.30;11.35;;;;;;;9.62;100.00;99163.88;5029236;28;20085;-73
2023/04/26 00:18:23;;;;;;;12.95;11.43;;;;;;;8.94;100.00;99067.22;5029961;28;20033;-74
2023/04/26 00:20:48;;;;;;;13.32;10.68;;;;;;;8.94;100.00;99049.78;5029705;28;20045;-74
2023/04/26 00:23:13;;;;;;;13.65;11.43;;;;;;;9.44;100.00;99125.78;5033002;28;20046;-73
2023/04/26 00:25:39;;;;;;;14.15;11.50;;;;;;;9.56;100.00;99159.63;5033386;28;20049;-74
2023/04/26 00:28:05;;;;;;;12.90;11.52;;;;;;;9.59;100.00;99162.19;5041944;28;20544;-75
2023/04/26 00:30:31;;;;;;;15.57;12.02;;;;;;;9.27;100.00;99128.63;5027117;28;20037;-73
2023/04/26 00:32:56;;;;;;;12.57;11.32;;;;;;;9.60;100.00;99163.03;5048886;28;20373;-74
2023/04/26 00:35:22;;;;;;;18.48;10.77;;;;;;;9.11;100.00;99087.91;5047766;28;20132;-73
2023/04/26 00:37:47;;;;;;;12.50;10.65;;;;;;;9.31;100.00;99135.56;5037692;28;20097;-74
2023/04/26 00:40:15;;;;;;;19.10;12.95;;;;;;;9.48;100.00;99167.59;5024351;28;20820;-73
2023/04/26 00:42:40;;;;;;;18.25;12.00;;;;;;;9.15;100.00;99115.75;5026329;28;20494;-73
2023/04/26 00:45:06;;;;;;;13.20;11.18;;;;;;;9.25;100.00;99162.72;5026572;28;20124;-73
2023/04/26 00:47:32;;;;;;;12.18;10.63;;;;;;;8.68;100.00;99047.56;5028103;28;20045;-73
2023/04/26 00:49:59;;;;;;;15.95;11.93;;;;;;;8.72;100.00;99080.63;5027897;28;20057;-73
2023/04/26 00:52:26;;;;;;;14.20;12.00;;;;;;;8.72;100.00;99056.22;5035467;28;20056;-73
2023/04/26 00:54:53;;;;;;;16.10;13.52;;;;;;;9.16;100.00;99113.13;5048324;28;20041;-72
2023/04/26 00:57:19;;;;;;;16.23;12.95;;;;;;;8.88;100.00;99068.19;5016398;28;20025;-72
2023/04/26 00:59:45;;;;;;;14.55;12.25;;;;;;;9.33;100.00;99151.25;5038857;28;20052;-74
2023/04/26 01:02:10;;;;;;;12.95;11.70;;;;;;;8.55;100.00;99051.25;5055480;28;20099;-73
2023/04/26 01:04:36;;;;;;;14.82;11.27;;;;;;;9.16;100.00;99135.81;5038454;28;20064;-72
2023/04/26 01:07:02;;;;;;;14.48;12.57;;;;;;;8.54;100.00;99039.91;5030494;28;20052;-73
2023/04/26 01:09:30;;;;;;;13.88;12.40;;;;;;;8.89;100.00;99130.06;5028055;28;20441;-71
2023/04/26 01:11:57;;;;;;;15.05;11.80;;;;;;;8.45;100.00;99058.31;5020683;28;20053;-71
2023/04/26 01:14:23;;;;;;;12.27;10.70;;;;;;;8.84;100.00;99137.97;5027847;28;20423;-74
2023/04/26 01:16:51;;;;;;;17.17;11.75;;;;;;;8.96;100.00;99143.94;5038587;28;20052;-73
2023/04/26 01:19:17;;;;;;;19.83;12.40;;;;;;;8.99;100.00;99143.88;5041012;28;20049;-73
2023/04/26 01:21:43;;;;;;;14.15;12.27;;;;;;;8.69;100.00;99121.66;5027480;28;20109;-74
2023/04/26 01:24:12;;;;;;;15.30;12.10;;;;;;;8.62;100.00;99069.44;5026505;28;20037;-72
2023/04/26 01:26:44;;;;;;;14.00;11.93;;;;;;;9.00;100.00;99151.72;5027707;28;20195;-73
2023/04/26 01:29:28;;;;;;;14.45;11.63;;;;;;;8.88;100.00;99141.44;5039806;28;20587;-73
2023/04/26 01:31:53;;;;;;;13.68;11.63;;;;;;;8.82;100.00;99121.44;5025652;28;20045;-74
2023/04/26 01:34:19;;;;;;;14.88;13.00;;;;;;;8.27;100.00;99017.59;5027420;28;20049;-72
2023/04/26 01:36:45;;;;;;;14.40;12.85;;;;;;;8.05;100.00;99022.22;5027289;28;20137;-74
2023/04/26 01:39:10;;;;;;;17.45;13.23;;;;;;;8.81;100.00;99132.81;5030740;28;20033;-73
2023/04/26 01:41:36;;;;;;;18.55;13.05;;;;;;;8.62;100.00;99089.50;5027698;28;20056;-73
2023/04/26 01:44:01;;;;;;;19.92;15.00;;;;;;;8.75;100.00;99085.81;5026055;28;20128;-73
2023/04/26 01:46:27;;;;;;;16.58;13.77;;;;;;;8.73;100.00;99082.34;5034601;28;20037;-73
2023/04/26 01:48:52;;;;;;;13.07;11.68;;;;;;;8.58;100.00;99093.03;5043661;28;20345;-72
2023/04/26 01:51:18;;;;;;;17.55;12.57;;;;;;;8.16;100.00;99045.59;5023162;28;20040;-72
2023/04/26 01:53:43;;;;;;;17.08;12.80;;;;;;;8.17;100.00;99023.81;5023965;28;20567;-72
2023/04/26 01:56:09;;;;;;;15.23;12.23;;;;;;;8.58;100.00;99088.66;5022213;28;20394;-72
2023/04/26 01:58:34;;;;;;;15.00;13.25;;;;;;;8.12;100.00;98995.13;5023273;28;20076;-72
2023/04/26 02:01:08;;;;;;;20.00;13.15;;;;;;;8.72;100.00;99103.31;5020604;28;19948;-72
2023/04/26 02:03:34;;;;;;;17.25;15.38;;;;;;;8.48;100.00;99083.59;5020641;28;20033;-74
2023/04/26 02:06:00;;;;;;;18.52;14.13;;;;;;;8.54;100.00;99101.78;5042440;28;20473;-73
2023/04/26 02:08:25;;;;;;;16.20;14.27;;;;;;;8.13;100.00;99056.09;5025415;28;20057;-74
2023/04/26 02:10:51;;;;;;;14.02;12.63;;;;;;;8.59;100.00;99081.66;5028784;28;20077;-74
2023/04/26 02:13:18;;;;;;;15.45;13.00;;;;;;;8.25;100.00;99017.59;5031659;28;20054;-74
2023/04/26 02:15:47;;;;;;;15.93;12.77;;;;;;;8.46;100.00;99078.38;5026659;28;20625;-75
2023/04/26 02:18:13;;;;;;;15.23;12.98;;;;;;;7.93;100.00;98950.09;5042396;28;20045;-74
2023/04/26 02:20:42;;;;;;;18.23;13.30;;;;;;;7.92;100.00;98939.69;5026168;28;20353;-72
2023/04/26 02:23:08;;;;;;;16.35;14.15;;;;;;;7.29;100.00;98849.97;5037638;28;20056;-72
2023/04/26 02:25:33;;;;;;;16.25;12.38;;;;;;;8.32;100.00;99033.22;5037850;28;20055;-73
2023/04/26 02:27:59;;;;;;;16.25;12.98;;;;;;;7.87;100.00;98923.22;5035034;28;20045;-72
2023/04/26 02:30:24;;;;;;;15.18;13.68;;;;;;;8.01;100.00;98940.44;5031578;28;20060;-72
2023/04/26 02:32:55;;;;;;;19.95;14.13;;;;;;;8.08;100.00;98958.63;5046165;28;20041;-74
2023/04/26 02:35:21;;;;;;;15.35;13.70;;;;;;;7.83;100.00;98938.06;5032133;28;20049;-72
2023/04/26 02:37:47;;;;;;;22.40;15.02;;;;;;;7.95;100.00;98973.59;5033227;28;20096;-73
2023/04/26 02:40:16;;;;;;;16.15;14.48;;;;;;;8.31;100.00;99048.03;5025809;28;20053;-73
2023/04/26 02:42:41;;;;;;;16.83;13.18;;;;;;;8.17;100.00;99050.84;5028073;28;20069;-73
2023/04/26 02:45:07;;;;;;;17.75;12.77;;;;;;;8.44;100.00;99036.56;5028306;28;20098;-73
2023/04/26 02:47:35;;;;;;;16.27;13.85;;;;;;;8.46;100.00;99073.13;5033108;28;20135;-72
2023/04/26 02:50:01;;;;;;;16.77;11.93;;;;;;;8.44;100.00;99049.63;5039174;28;20045;-74
2023/04/26 02:52:27;;;;;;;17.25;13.60;;;;;;;7.89;100.00;98982.38;5015098;28;20057;-73
2023/04/26 02:54:52;;;;;;;17.25;15.20;;;;;;;8.49;100.00;99072.22;5020485;28;20332;-73
2023/04/26 02:57:19;;;;;;;17.02;13.13;;;;;;;8.01;100.00;99010.97;5024994;28;20032;-72
2023/04/26 02:59:44;;;;;;;16.27;14.52;;;;;;;7.82;100.00;98959.84;5018011;28;20053;-74
2023/04/26 03:02:10;;;;;;;18.20;13.60;;;;;;;7.91;100.00;98967.53;5040482;28;20102;-73
2023/04/26 03:04:35;;;;;;;16.75;13.30;;;;;;;8.45;100.00;99080.13;5039713;28;20048;-73
2023/04/26 03:07:03;;;;;;;16.02;13.23;;;;;;;8.34;100.00;99066.28;5040260;28;20053;-73
2023/04/26 03:09:29;;;;;;;29.40;15.13;;;;;;;8.60;100.00;99078.19;5024406;28;20113;-73
2023/04/26 03:11:55;;;;;;;18.58;15.70;;;;;;;7.57;100.00;98982.75;5037650;28;20533;-74
2023/04/26 03:14:21;;;;;;;29.17;14.45;;;;;;;7.52;100.00;98927.13;5028620;28;20144;-73
2023/04/26 03:16:49;;;;;;;17.88;13.90;;;;;;;7.70;100.00;98952.13;5025950;28;20041;-72
2023/04/26 03:19:15;;;;;;;19.10;14.95;;;;;;;8.31;100.00;99055.88;5026695;28;20163;-72
2023/04/26 03:21:40;;;;;;;23.80;15.27;;;;;;;7.78;100.00;98976.44;5041610;28;20465;-73
2023/04/26 03:24:06;;;;;;;21.00;14.85;;;;;;;8.54;100.00;99081.72;5031156;28;20523;-73
2023/04/26 03:26:32;;;;;;;17.67;15.90;;;;;;;6.97;100.00;98859.03;5047020;28;20073;-72
2023/04/26 03:28:57;;;;;;;15.27;13.68;;;;;;;8.25;100.00;99088.16;5040048;28;20876;-72
2023/04/26 03:31:23;;;;;;;14.88;12.43;;;;;;;8.04;100.00;99042.25;5030313;28;20037;-72
2023/04/26 03:33:48;;;;;;;16.30;14.38;;;;;;;8.33;100.00;99095.03;5029381;28;20409;-73
2023/04/26 03:36:14;;;;;;;33.22;16.33;;;;;;;8.36;100.00;99077.59;5040331;28;20064;-74
2023/04/26 03:38:41;;;;;;;22.40;16.02;;;;;;;7.71;100.00;98998.28;5045143;28;20463;-72
2023/04/26 03:41:07;;;;;;;19.58;13.70;;;;;;;8.48;100.00;99084.44;5049236;28;20040;-73
2023/04/26 03:43:32;;;;;;;16.50;14.63;;;;;;;8.56;100.00;99097.41;5042397;28;20163;-73
2023/04/26 03:45:58;;;;;;;16.05;13.52;;;;;;;8.57;100.00;99106.97;5048147;28;20045;-74
2023/04/26 03:48:24;;;;;;;23.67;14.68;;;;;;;8.59;100.00;99089.50;5044973;28;20034;-72
2023/04/26 03:50:49;;;;;;;16.55;14.20;;;;;;;8.39;100.00;99092.38;5026267;28;20057;-75
2023/04/26 03:53:15;;;;;;;19.30;15.80;;;;;;;8.44;100.00;99086.22;5025826;28;20056;-74
2023/04/26 03:55:41;;;;;;;20.50;16.73;;;;;;;8.28;100.00;99107.31;5028886;28;20057;-73
2023/04/26 03:58:06;;;;;;;19.77;16.05;;;;;;;8.09;100.00;99036.97;5031475;28;20056;-73
2023/04/26 04:00:42;;;;;;;26.95;16.33;;;;;;;7.86;100.00;99058.13;5037261;28;20429;-73
2023/04/26 04:03:08;;;;;;;19.73;14.55;;;;;;;8.41;100.00;99112.41;5058188;28;20043;-73
2023/04/26 04:05:33;;;;;;;16.45;13.85;;;;;;;7.86;100.00;98987.63;5048482;28;20050;-75
2023/04/26 04:07:59;;;;;;;17.75;15.85;;;;;;;8.73;100.00;99128.56;5051239;28;20065;-73
2023/04/26 04:10:25;;;;;;;16.88;13.80;;;;;;;8.46;100.00;99138.50;5040778;28;20061;-74
2023/04/26 04:12:52;;;;;;;17.40;14.77;;;;;;;8.27;100.00;99050.72;5028569;28;20464;-74
2023/04/26 04:15:19;;;;;;;20.88;15.85;;;;;;;7.27;100.00;98930.00;5028348;28;20112;-74
2023/04/26 04:17:45;;;;;;;24.73;14.63;;;;;;;8.69;100.00;99160.88;5016628;28;20161;-74
2023/04/26 04:20:11;;;;;;;17.42;13.40;;;;;;;8.42;100.00;99092.34;5026786;28;20144;-73
2023/04/26 04:22:40;;;;;;;18.17;15.80;;;;;;;8.15;100.00;99041.28;5028563;28;20053;-74
2023/04/26 04:25:09;;;;;;;23.05;17.02;;;;;;;8.26;100.00;99068.13;5028286;28;20467;-73
2023/04/26 04:27:37;;;;;;;23.15;17.48;;;;;;;8.68;100.00;99146.06;5030760;28;20039;-73
2023/04/26 04:30:09;;;;;;;17.67;15.15;;;;;;;8.35;100.00;99075.84;5020158;28;20083;-74
2023/04/26 04:32:35;;;;;;;19.08;16.38;;;;;;;8.94;100.00;99191.03;5051801;28;20587;-74
2023/04/26 04:35:01;;;;;;;19.10;15.68;;;;;;;9.06;100.00;99190.00;5036696;28;20057;-75
2023/04/26 04:37:27;;;;;;;16.05;13.75;;;;;;;8.21;100.00;99055.09;5045611;28;20115;-74
2023/04/26 04:39:54;;;;;;;24.42;14.65;;;;;;;9.08;100.00;99185.63;5047601;28;20041;-74
2023/04/26 04:42:20;;;;;;;24.77;14.75;;;;;;;8.96;100.00;99202.34;5048167;28;20037;-73
2023/04/26 04:44:46;;;;;;;18.85;16.85;;;;;;;9.00;100.00;99204.06;5047638;28;20091;-74
2023/04/26 04:47:12;;;;;;;19.13;16.48;;;;;;;8.80;100.00;99214.78;5047557;28;20048;-73
2023/04/26 04:49:38;;;;;;;28.48;14.90;;;;;;;8.99;100.00;99206.69;5046305;28;20056;-73
2023/04/26 04:52:04;;;;;;;17.95;15.27;;;;;;;8.91;100.00;99193.72;5033792;28;20235;-74
2023/04/26 04:54:29;;;;;;;17.80;15.75;;;;;;;9.02;100.00;99217.13;5040581;28;20742;-73
2023/04/26 04:56:56;;;;;;;17.17;14.32;;;;;;;8.99;100.00;99199.72;5045425;28;20045;-76
2023/04/26 04:59:22;;;;;;;23.85;13.52;;;;;;;9.17;100.00;99201.19;5023492;28;20145;-73
2023/04/26 05:01:48;;;;;;;16.95;14.57;;;;;;;9.29;100.00;99203.66;5039826;28;20049;-73
2023/04/26 05:04:13;;;;;;;21.27;14.43;;;;;;;9.33;100.00;99225.41;5046974;28;20501;-73
2023/04/26 05:06:38;;;;;;;17.90;14.23;;;;;;;8.47;100.00;99108.84;5047742;28;20129;-73
2023/04/26 05:09:04;;;;;;;15.57;13.35;;;;;;;8.78;100.00;99125.00;5047068;28;20044;-74
2023/04/26 05:11:31;;;;;;;19.95;14.02;;;;;;;8.66;100.00;99112.06;5047258;28;20540;-75
2023/04/26 05:13:56;;;;;;;16.33;13.48;;;;;;;9.69;100.00;99247.59;5034824;28;20042;-74
2023/04/26 05:16:22;;;;;;;19.92;14.30;;;;;;;9.54;100.00;99281.00;5019857;28;20111;-76
2023/04/26 05:18:47;;;;;;;18.20;15.20;;;;;;;9.89;100.00;99262.97;5028713;28;20504;-73
2023/04/26 05:21:13;;;;;;;15.10;13.48;;;;;;;10.47;100.00;99255.91;5039108;28;20050;-73
2023/04/26 05:23:38;;;;;;;17.27;12.43;;;;;;;11.29;100.00;99286.69;5029026;28;20045;-74
2023/04/26 05:26:05;;;;;;;21.88;12.15;;;;;;;11.24;100.00;99319.16;5035339;28;20149;-71
2023/04/26 05:28:30;;;;;;;15.18;13.35;;;;;;;11.56;100.00;99250.19;5038789;28;20052;-72
2023/04/26 05:30:56;;;;;;;41.38;14.48;;;;;;;13.23;100.00;99377.56;5033550;28;20049;-73
2023/04/26 05:33:21;;;;;;;13.40;11.45;;;;;;;13.36;100.00;99390.44;5045209;28;20048;-75
2023/04/26 05:35:47;;;;;;;24.83;12.05;;;;;;;13.67;100.00;99316.59;5030271;28;20504;-75
2023/04/26 05:38:13;;;;;;;15.27;12.57;;;;;;;14.68;100.00;99452.44;5026896;28;20509;-73
2023/04/26 05:40:38;;;;;;;15.15;11.68;;;;;;;14.08;100.00;99464.81;5026588;28;20041;-74
2023/04/26 05:43:04;;;;;;;20.23;11.77;;;;;;;13.33;100.00;99351.00;5027861;28;20238;-75
2023/04/26 05:45:29;;;;;;;15.60;12.38;;;;;;;14.63;100.00;99352.25;5031957;28;20033;-74
2023/04/26 05:47:55;;;;;;;14.85;11.63;;;;;;;15.12;100.00;99429.81;5025628;28;20440;-75
2023/04/26 05:50:20;;;;;;;14.35;11.10;;;;;;;15.38;100.00;99381.34;5026037;28;20041;-75
2023/04/26 05:52:46;;;;;;;13.10;10.43;;;;;;;16.03;100.00;99482.13;5027589;28;20052;-74
2023/04/26 05:55:12;;;;;;;13.52;9.90;;;;;;;16.03;100.00;99414.19;5042421;28;20501;-74
2023/04/26 05:57:38;;;;;;;11.85;9.50;;;;;;;15.40;100.00;99477.31;5036166;28;20045;-73
2023/04/26 06:00:04;;;;;;;15.32;9.82;;;;;;;15.83;100.00;99400.88;5052317;28;20086;-75
2023/04/26 06:02:30;;;;;;;10.70;9.60;;;;;;;16.46;100.00;99488.44;5044319;28;20041;-76
2023/04/26 06:04:55;;;;;;;10.73;8.35;;;;;;;15.76;100.00;99343.84;5039880;28;20038;-75
2023/04/26 06:07:21;;;;;;;11.90;10.50;;;;;;;16.68;100.00;99486.66;5034052;28;20052;-72
2023/04/26 06:09:47;;;;;;;13.40;10.10;;;;;;;15.05;100.00;99374.59;5034660;28;20155;-73
2023/04/26 06:12:12;;;;;;;14.25;9.15;;;;;;;15.83;100.00;99412.31;5021727;28;20103;-72
2023/04/26 06:14:38;;;;;;;9.02;7.28;;;;;;;16.34;100.00;99451.84;5023972;28;20047;-72
2023/04/26 06:17:03;;;;;;;14.68;8.57;;;;;;;15.59;100.00;99382.34;5026240;28;20061;-75
2023/04/26 06:19:29;;;;;;;15.73;9.75;;;;;;;15.76;100.00;99460.22;5026175;28;20048;-72
2023/04/26 06:21:55;;;;;;;72.68;11.70;;;;;;;15.89;100.00;99448.25;5025983;28;20659;-73
2023/04/26 06:24:24;;;;;;;11.25;7.72;;;;;;;15.20;100.00;99348.50;5026804;28;20045;-76
2023/04/26 06:26:50;;;;;;;10.77;9.52;;;;;;;16.18;100.00;99433.06;5024993;28;20156;-72
2023/04/26 06:29:16;;;;;;;11.18;7.53;;;;;;;15.99;100.00;99428.47;5024894;28;20211;-73
2023/04/26 06:31:42;;;;;;;12.27;8.13;;;;;;;15.71;100.00;99343.13;5024751;28;20049;-71
2023/04/26 06:34:07;;;;;;;12.68;8.10;;;;;;;15.98;100.00;99415.28;5024725;28;20580;-72
2023/04/26 06:36:33;;;;;;;9.48;6.55;;;;;;;15.84;100.00;99444.91;5017849;28;20418;-72
2023/04/26 06:38:58;;;;;;;10.82;6.35;;;;;;;16.14;100.00;99421.72;5021259;28;20084;-73
2023/04/26 06:41:24;;;;;;;10.32;6.20;;;;;;;15.53;100.00;99342.03;5030212;28;20071;-73
2023/04/26 06:43:49;;;;;;;11.15;8.18;;;;;;;15.49;100.00;99407.38;5033376;28;20041;-73
2023/04/26 06:46:14;;;;;;;13.40;7.57;;;;;;;15.28;100.00;99360.56;5028787;28;20064;-75
2023/04/26 06:48:40;;;;;;;12.93;8.38;;;;;;;15.63;100.00;99422.72;5037362;28;20076;-73
2023/04/26 06:51:07;;;;;;;8.63;7.13;;;;;;;14.67;100.00;99443.66;5046290;28;20112;-74
2023/04/26 06:53:33;;;;;;;14.45;9.45;;;;;;;14.01;100.00;99414.00;5041240;28;20543;-72
2023/04/26 06:55:59;;;;;;;11.35;7.80;;;;;;;13.41;100.00;99363.03;5037365;28;20489;-73
2023/04/26 06:58:24;;;;;;;17.48;8.80;;;;;;;14.11;100.00;99438.34;5037975;28;20064;-72
2023/04/26 07:00:50;;;;;;;12.55;8.00;;;;;;;14.14;100.00;99357.34;5027370;28;20473;-73
2023/04/26 07:03:15;;;;;;;9.95;7.47;;;;;;;13.58;100.00;99353.78;5024407;28;20044;-73
2023/04/26 07:05:41;;;;;;;11.75;8.38;;;;;;;13.51;100.00;99330.25;5045417;28;20583;-73
2023/04/26 07:08:06;;;;;;;9.65;7.13;;;;;;;13.88;100.00;99334.41;5048813;28;20049;-73
2023/04/26 07:10:32;;;;;;;12.70;8.30;;;;;;;13.66;100.00;99331.56;5049100;28;20088;-72
2023/04/26 07:12:57;;;;;;;14.82;7.72;;;;;;;13.95;100.00;99340.34;5048675;28;20412;-72
2023/04/26 07:15:23;;;;;;;14.55;8.70;;;;;;;14.47;100.00;99427.53;5045632;28;20036;-74
2023/04/26 07:17:48;;;;;;;15.10;8.15;;;;;;;13.68;100.00;99335.00;5030443;28;20496;-75
2023/04/26 07:20:18;;;;;;;17.05;10.15;;;;;;;14.12;100.00;99443.56;5041759;28;20416;-73
2023/04/26 07:22:44;;;;;;;13.43;6.60;;;;;;;14.10;100.00;99436.63;5029120;28;20084;-73
2023/04/26 07:25:09;;;;;;;10.85;6.45;;;;;;;14.36;100.00;99431.41;5049189;28;20083;-73
2023/04/26 07:27:35;;;;;;;9.73;6.53;;;;;;;13.86;100.00;99322.16;5048327;28;20048;-74
2023/04/26 07:30:01;;;;;;;14.75;7.78;;;;;;;14.33;100.00;99442.06;5027031;28;20033;-74
2023/04/26 07:32:26;;;;;;;11.45;6.97;;;;;;;14.05;100.00;99417.44;5042175;28;20049;-73
2023/04/26 07:34:52;;;;;;;15.65;7.97;;;;;;;13.62;100.00;99340.47;5032801;28;20045;-73
2023/04/26 07:37:17;;;;;;;13.60;7.40;;;;;;;14.38;100.00;99436.63;5032303;28;20053;-74
2023/04/26 07:39:43;;;;;;;9.00;6.65;;;;;;;14.51;100.00;99431.81;5048541;28;20437;-74
2023/04/26 07:42:08;;;;;;;10.55;8.25;;;;;;;13.94;100.00;99320.16;5049130;28;20036;-73
2023/04/26 07:44:34;;;;;;;14.25;7.75;;;;;;;14.35;100.00;99444.63;5048700;28;20049;-72
2023/04/26 07:47:00;;;;;;;12.55;7.00;;;;;;;14.11;100.00;99430.44;5045197;28;20053;-74
2023/04/26 07:49:25;;;;;;;8.90;5.78;;;;;;;13.82;100.00;99353.06;5044976;28;20065;-70
2023/04/26 07:51:51;;;;;;;8.85;7.05;;;;;;;14.26;100.00;99434.38;5040332;28;20056;-71
2023/04/26 07:54:16;;;;;;;13.73;8.15;;;;;;;14.27;100.00;99354.31;5021127;28;20041;-71
2023/04/26 07:56:42;;;;;;;11.50;6.55;;;;;;;14.37;100.00;99363.63;5014338;28;20049;-72
2023/04/26 07:59:07;;;;;;;9.93;5.47;;;;;;;13.21;100.00;99200.25;5038918;28;20060;-73
2023/04/26 08:01:33;;;;;;;16.75;7.20;;;;;;;14.27;100.00;99351.66;5037250;28;20414;-70
2023/04/26 08:03:58;;;;;;;11.75;7.75;;;;;;;14.89;100.00;99453.50;5021228;28;20072;-69
2023/04/26 08:06:24;;;;;;;10.07;4.70;;;;;;;14.95;100.00;99462.09;5037209;28;20041;-69
2023/04/26 08:08:51;;;;;;;8.65;5.15;;;;;;;14.82;100.00;99467.81;5040347;28;20056;-72
2023/04/26 08:11:17;;;;;;;12.02;4.70;;;;;;;14.50;100.00;99370.25;5044110;28;20103;-72
2023/04/26 08:13:46;;;;;;;10.93;5.53;;;;;;;14.93;100.00;99434.84;5039987;28;20057;-73
2023/04/26 08:16:11;;;;;;;5.75;3.88;;;;;;;15.11;100.00;99466.88;5035667;28;20049;-73
2023/04/26 08:18:36;;;;;;;8.70;5.00;;;;;;;14.52;100.00;99376.34;5019094;28;20033;-72
2023/04/26 08:21:02;;;;;;;4.97;3.60;;;;;;;15.30;100.00;99478.53;5044887;28;20082;-73
2023/04/26 08:23:31;;;;;;;5.65;3.72;;;;;;;15.19;100.00;99475.38;5026569;28;20050;-73
2023/04/26 08:25:57;;;;;;;6.28;4.22;;;;;;;15.02;100.00;99470.69;5019744;28;20064;-70
2023/04/26 08:28:22;;;;;;;5.10;3.90;;;;;;;15.74;100.00;99377.41;5026437;28;20057;-69
2023/04/26 08:30:48;;;;;;;5.90;3.78;;;;;;;15.59;100.00;99469.59;5015098;28;20033;-69
2023/04/26 08:33:13;;;;;;;6.18;3.33;;;;;;;15.30;100.00;99388.66;5022405;28;20033;-70
2023/04/26 08:35:39;;;;;;;7.32;3.35;;;;;;;16.45;100.00;99359.59;5023438;28;20046;-69
2023/04/26 08:38:04;;;;;;;5.38;2.88;;;;;;;17.54;100.00;99462.84;5020669;28;20211;-70
2023/04/26 08:40:30;;;;;;;16.42;4.75;;;;;;;16.99;100.00;99400.63;5015429;28;20073;-69
2023/04/26 08:42:55;;;;;;;6.57;3.15;;;;;;;17.40;100.00;99336.13;5026858;28;20481;-71
2023/04/26 08:45:23;;;;;;;6.93;3.85;;;;;;;18.17;100.00;99489.19;5024622;28;20080;-70
2023/04/26 08:47:52;;;;;;;8.10;3.78;;;;;;;16.13;100.00;99392.66;5022463;28;20083;-69
2023/04/26 08:50:20;;;;;;;8.80;3.95;;;;;;;17.08;100.00;99489.50;5022567;28;20060;-74
2023/04/26 08:52:49;;;;;;;5.88;2.45;;;;;;;16.86;100.00;99415.34;5026121;28;20044;-73
2023/04/26 08:55:15;;;;;;;4.82;2.90;;;;;;;17.39;100.00;99504.13;5021134;28;20160;-72
2023/04/26 08:57:45;;;;;;;15.55;3.47;;;;;;;17.52;100.00;99474.34;5038807;28;20037;-70
2023/04/26 09:00:12;;;;;;;7.20;3.20;;;;;;;17.85;100.00;99487.09;5019403;28;20124;-74
2023/04/26 09:02:45;;;;;;;4.78;3.00;;;;;;;16.38;100.00;99464.03;5015209;28;20100;-76
2023/04/26 09:05:11;;;;;;;6.60;3.90;;;;;;;16.47;100.00;99482.22;5018026;28;20540;-71
2023/04/26 09:07:44;;;;;;;9.93;4.40;;;;;;;16.42;100.00;99478.91;5018187;28;20130;-71
2023/04/26 09:10:11;;;;;;;13.75;2.97;;;;;;;16.16;100.00;99498.44;5023917;28;20061;-71
2023/04/26 09:12:38;;;;;;;3.92;2.35;;;;;;;16.06;100.00;99474.09;5021999;28;20044;-71
2023/04/26 09:15:07;;;;;;;8.15;4.63;;;;;;;15.16;100.00;99331.03;5016040;28;21260;-71
2023/04/26 09:17:37;;;;;;;6.65;2.97;;;;;;;16.43;100.00;99385.28;5038289;28;20821;-69
2023/04/26 09:20:26;;;;;;;7.90;4.93;;;;;;;17.33;100.00;99510.56;5016462;28;20112;-70
2023/04/26 09:23:08;;;;;;;7.78;2.20;;;;;;;16.73;100.00;99387.59;5025718;28;20137;-72
2023/04/26 09:25:34;;;;;;;5.28;3.17;;;;;;;16.87;100.00;99494.75;5029508;28;20069;-70
2023/04/26 09:28:02;;;;;;;10.60;3.15;;;;;;;16.80;100.00;99375.84;5028061;28;20060;-70
2023/04/26 09:30:28;;;;;;;5.90;2.28;;;;;;;18.00;100.00;99496.16;5040301;28;20045;-70
2023/04/26 09:32:59;;;;;;;5.15;2.50;;;;;;;16.55;100.00;99397.16;5027197;28;20037;-69
2023/04/26 09:35:38;;;;;;;17.38;2.83;;;;;;;17.33;100.00;99486.69;5028695;28;20044;-70
2023/04/26 09:38:07;;;;;;;7.18;2.83;;;;;;;18.28;100.00;99502.84;5034681;28;20076;-71
2023/04/26 09:40:41;;;;;;;4.85;3.40;;;;;;;18.29;100.00;99409.84;5025530;28;20065;-69
2023/04/26 09:43:14;;;;;;;4.25;2.25;;;;;;;18.68;100.00;99516.91;5025527;28;20379;-70
2023/04/26 09:45:55;;;;;;;6.72;2.78;;;;;;;19.29;100.00;99436.81;5026000;28;20825;-69
2023/04/26 09:48:27;;;;;;;8.70;2.97;;;;;;;19.23;100.00;99373.28;5026711;28;20033;-71
2023/04/26 09:50:55;;;;;;;3.80;2.10;;;;;;;20.42;98.98;99500.94;5026305;28;20385;-71
2023/04/26 09:53:33;;;;;;;3.72;1.80;;;;;;;19.94;82.42;99390.81;5026239;28;20069;-71
2023/04/26 09:56:24;;;;;;;5.20;3.08;;;;;;;19.77;75.34;99508.88;5025164;28;20053;-70
2023/04/26 09:58:58;;;;;;;4.65;2.28;;;;;;;20.23;82.04;99512.63;5024011;28;20085;-70
2023/04/26 10:01:24;;;;;;;;;;;;;;;20.34;77.73;99506.69;5031054;28;20128;-71
2023/04/26 10:03:50;;;;;;;4.50;2.05;;;;;;;19.75;79.41;99508.94;5032918;28;19920;-70
2023/04/26 10:06:16;;;;;;;13.77;3.03;;;;;;;17.88;88.66;99396.72;5026594;28;20038;-70
2023/04/26 10:08:43;;;;;;;5.32;2.92;;;;;;;18.73;96.55;99416.56;5025966;28;20131;-70
2023/04/26 10:11:11;;;;;;;4.63;2.28;;;;;;;18.80;82.23;99415.38;5026007;28;20045;-68
2023/04/26 10:13:40;;;;;;;5.15;2.30;;;;;;;18.28;90.00;99506.38;5030330;28;20056;-70
2023/04/26 10:16:07;;;;;;;6.80;2.65;;;;;;;17.65;100.00;99415.44;5024303;28;20060;-70
2023/04/26 10:18:32;;;;;;;8.52;2.70;;;;;;;17.58;100.00;99403.38;5037503;28;20043;-70
2023/04/26 10:21:32;;;;;;;6.88;2.63;;;;;;;17.58;100.00;99384.81;5034689;28;20040;-68
2023/04/26 10:23:59;;;;;;;5.63;2.53;;;;;;;18.54;100.00;99489.22;5013419;28;20045;-69
2023/04/26 10:26:50;;;;;;;6.78;2.90;;;;;;;18.07;100.00;99486.13;5034776;28;20056;-69
2023/04/26 10:29:16;;;;;;;4.53;3.28;;;;;;;18.35;100.00;99486.59;5041369;28;20128;-69
2023/04/26 10:32:07;;;;;;;7.20;2.45;;;;;;;18.26;100.00;99492.31;5012202;28;20044;-70
2023/04/26 10:34:35;;;;;;;8.63;2.15;;;;;;;16.95;100.00;99412.31;5034195;28;20041;-71
2023/04/26 10:37:17;;;;;;;6.50;2.88;;;;;;;17.72;100.00;99489.41;5029810;28;20072;-70
2023/04/26 10:39:44;;;;;;;5.85;3.28;;;;;;;17.70;100.00;99461.22;5045561;28;20261;-71
2023/04/26 10:42:24;;;;;;;4.00;1.98;;;;;;;17.21;100.00;99482.78;5044996;28;20037;-70
2023/04/26 10:44:54;;;;;;;4.43;1.95;;;;;;;17.71;96.47;99378.03;5031962;28;20045;-70
2023/04/26 10:47:49;;;;;;;4.38;2.88;;;;;;;18.67;92.34;99431.03;5027556;28;20046;-70
2023/04/26 10:50:15;;;;;;;3.13;2.10;;;;;;;19.84;83.59;99488.13;5021666;28;20477;-70
2023/04/26 10:53:05;;;;;;;4.35;2.53;;;;;;;18.24;89.22;99485.34;5028957;28;20038;-70
2023/04/26 10:55:40;;;;;;;12.48;3.65;;;;;;;19.73;98.23;99462.91;5026630;28;20049;-70
2023/04/26 10:58:31;;;;;;;5.25;3.10;;;;;;;18.84;83.52;99378.84;5028588;28;20116;-70
2023/04/26 11:01:03;;;;;;;9.80;5.05;;;;;;;19.50;80.06;99487.19;5023603;28;20140;-71
2023/04/26 11:03:30;;;;;;;6.13;2.75;;;;;;;20.73;75.69;99484.13;5038185;28;20033;-69
2023/04/26 11:05:56;;;;;;;9.55;2.47;;;;;;;20.60;80.54;99437.78;5045902;28;20056;-69
2023/04/26 11:08:31;;;;;;;4.32;2.42;;;;;;;18.65;90.47;99456.81;5044902;28;20143;-69
2023/04/26 11:11:02;;;;;;;12.80;3.42;;;;;;;18.95;97.23;99481.06;5045346;28;20052;-69
2023/04/26 11:13:43;;;;;;;11.80;3.30;;;;;;;18.91;98.62;99473.31;5045108;28;20041;-71
2023/04/26 11:16:10;;;;;;;25.88;6.07;;;;;;;18.79;100.00;99464.13;5045587;28;20168;-69
2023/04/26 11:18:39;;;;;;;39.20;5.82;;;;;;;18.29;100.00;99420.47;5045424;28;20492;-69
2023/04/26 11:21:05;;;;;;;34.05;5.40;;;;;;;18.75;100.00;99476.72;5044582;28;20044;-71